Time;durP1;ratioP1;P1;durP2;ratioP2;P2;SDS_P1;SDS_P2;PMS_P1;PMS_P2;Temp;Humidity;BMP_temperature;BMP_pressure;BME280_temperature;BME280_humidity;BME280_pressure;Samples;Min_cycle;Max_cycle;Signal;HPM_P1;HPM_P2
2023/11/05 00:00:09;;;;;;;2.60;0.70;;;;;;;11.76;100.00;100249.16;2593469;22;20476;-71
2023/11/05 00:01:09;;;;;;;2.20;0.77;;;;;;;11.72;100.00;100246.50;2581272;22;20226;-71
2023/11/05 00:02:09;;;;;;;2.10;0.60;;;;;;;11.71;100.00;100239.41;2594286;22;20921;-71
2023/11/05 00:03:10;;;;;;;1.70;0.80;;;;;;;11.65;100.00;100241.22;2607995;22;20151;-71
2023/11/05 00:04:10;;;;;;;1.63;0.60;;;;;;;11.64;100.00;100245.19;2607791;22;20504;-71
2023/11/05 00:05:14;;;;;;;1.77;0.73;;;;;;;11.64;100.00;100230.53;2607665;22;20158;-71
2023/11/05 00:06:14;;;;;;;0.40;0.40;;;;;;;11.63;100.00;100237.31;2607935;22;20153;-71
2023/11/05 00:07:15;;;;;;;0.73;0.50;;;;;;;11.59;100.00;100239.44;2607874;22;20464;-71
2023/11/05 00:08:15;;;;;;;0.70;0.50;;;;;;;11.54;100.00;100237.97;2607295;22;20151;-71
2023/11/05 00:09:16;;;;;;;0.73;0.57;;;;;;;11.52;100.00;100242.44;2607747;22;20562;-71
2023/11/05 00:10:17;;;;;;;1.23;0.63;;;;;;;11.47;100.00;100234.69;2607742;22;20549;-71
2023/11/05 00:11:17;;;;;;;0.70;0.53;;;;;;;11.53;100.00;100236.41;2607478;22;20143;-71
2023/11/05 00:12:18;;;;;;;2.93;0.80;;;;;;;11.52;100.00;100239.66;2607764;22;20159;-71
2023/11/05 00:13:18;;;;;;;0.70;0.53;;;;;;;11.41;100.00;100219.78;2607826;22;20211;-70
2023/11/05 00:14:19;;;;;;;1.73;1.10;;;;;;;11.52;100.00;100240.41;2607249;22;20160;-71
2023/11/05 00:15:19;;;;;;;3.37;0.70;;;;;;;11.38;100.00;100215.16;2607924;22;20154;-71
2023/11/05 00:16:20;;;;;;;1.20;0.60;;;;;;;11.50;100.00;100231.00;2607723;22;20147;-71
2023/11/05 00:17:20;;;;;;;1.53;0.60;;;;;;;11.47;100.00;100234.69;2607769;22;20177;-71
2023/11/05 00:18:21;;;;;;;1.00;0.63;;;;;;;11.45;100.00;100232.34;2606984;22;20217;-71
2023/11/05 00:19:22;;;;;;;2.03;0.90;;;;;;;11.42;100.00;100224.91;2608080;22;20153;-71
2023/11/05 00:20:22;;;;;;;1.53;1.00;;;;;;;11.43;100.00;100223.69;2607383;22;20375;-71
2023/11/05 00:21:23;;;;;;;1.67;1.00;;;;;;;11.49;100.00;100235.00;2607823;22;20518;-71
2023/11/05 00:22:23;;;;;;;4.10;0.77;;;;;;;11.38;100.00;100217.94;2607707;22;20151;-71
2023/11/05 00:23:24;;;;;;;1.10;0.70;;;;;;;11.43;100.00;100239.56;2607809;22;20154;-70
2023/11/05 00:24:24;;;;;;;2.20;0.80;;;;;;;11.43;100.00;100245.88;2593981;22;20158;-71
2023/11/05 00:25:24;;;;;;;1.53;0.60;;;;;;;11.42;100.00;100238.78;2594026;22;20217;-71
2023/11/05 00:26:26;;;;;;;0.87;0.50;;;;;;;11.44;100.00;100241.09;2607800;22;20157;-71
2023/11/05 00:27:26;;;;;;;4.10;0.77;;;;;;;11.42;100.00;100235.25;2607799;22;20148;-71
2023/11/05 00:28:27;;;;;;;1.53;0.60;;;;;;;11.45;100.00;100237.91;2606933;22;20450;-71
2023/11/05 00:29:27;;;;;;;1.43;0.70;;;;;;;11.46;100.00;100239.44;2606798;22;20153;-70
2023/11/05 00:30:27;;;;;;;2.40;0.70;;;;;;;11.48;100.00;100248.09;2607170;22;20150;-70
2023/11/05 00:31:28;;;;;;;1.07;0.60;;;;;;;11.50;100.00;100237.31;2593991;22;20160;-70
2023/11/05 00:32:29;;;;;;;0.90;0.70;;;;;;;11.51;100.00;100232.53;2594299;22;20356;-70
2023/11/05 00:33:29;;;;;;;1.43;0.50;;;;;;;11.11;100.00;100193.44;2607959;22;20178;-71
2023/11/05 00:34:29;;;;;;;1.07;0.70;;;;;;;11.43;100.00;100237.56;2607723;22;20153;-70
2023/11/05 00:35:30;;;;;;;1.67;0.70;;;;;;;11.02;100.00;100187.03;2607717;22;20151;-71
2023/11/05 00:36:30;;;;;;;1.87;0.77;;;;;;;11.45;100.00;100250.97;2607697;22;20154;-72
2023/11/05 00:37:31;;;;;;;0.83;0.67;;;;;;;11.44;100.00;100243.88;2607653;22;20187;-70
2023/11/05 00:38:31;;;;;;;0.80;0.60;;;;;;;11.41;100.00;100245.56;2606991;22;20150;-70
2023/11/05 00:39:32;;;;;;;0.90;0.60;;;;;;;11.44;100.00;100246.66;2607831;22;20535;-71
2023/11/05 00:40:32;;;;;;;1.83;0.73;;;;;;;11.44;100.00;100252.22;2607359;22;20147;-70
2023/11/05 00:41:33;;;;;;;1.90;0.70;;;;;;;11.45;100.00;100246.22;2607599;22;20534;-70
2023/11/05 00:42:33;;;;;;;2.00;0.70;;;;;;;11.46;100.00;100242.22;2607813;22;20186;-71
2023/11/05 00:43:34;;;;;;;1.90;0.50;;;;;;;11.48;100.00;100247.31;2607063;22;20174;-71
2023/11/05 00:44:34;;;;;;;0.70;0.50;;;;;;;11.49;100.00;100235.78;2607677;22;20155;-70
2023/11/05 00:45:35;;;;;;;1.00;0.70;;;;;;;11.37;100.00;100227.50;2607392;22;20204;-71
2023/11/05 00:46:35;;;;;;;1.90;0.50;;;;;;;11.54;100.00;100237.97;2607716;22;20184;-71
2023/11/05 00:47:36;;;;;;;3.23;0.80;;;;;;;11.54;100.00;100231.66;2607690;22;20328;-71
2023/11/05 00:48:36;;;;;;;0.60;0.50;;;;;;;11.46;100.00;100246.97;2606363;22;20522;-71
2023/11/05 00:49:37;;;;;;;1.03;0.70;;;;;;;11.57;100.00;100239.06;2605129;22;20610;-71
2023/11/05 00:50:37;;;;;;;0.67;0.50;;;;;;;11.52;100.00;100239.66;2604845;22;20204;-70
2023/11/05 00:51:38;;;;;;;2.37;1.07;;;;;;;11.58;100.00;100235.09;2591461;22;20609;-71
2023/11/05 00:52:38;;;;;;;0.73;0.50;;;;;;;11.58;100.00;100232.31;2591614;22;20209;-70
2023/11/05 00:53:38;;;;;;;1.50;1.07;;;;;;;11.60;100.00;100233.44;2604966;22;20185;-70
2023/11/05 00:54:39;;;;;;;1.07;0.70;;;;;;;11.55;100.00;100224.88;2605199;22;20339;-72
2023/11/05 00:55:39;;;;;;;0.93;0.53;;;;;;;11.61;100.00;100237.78;2605186;22;20177;-70
2023/11/05 00:56:40;;;;;;;2.87;0.60;;;;;;;11.59;100.00;100231.13;2605146;22;20502;-70
2023/11/05 00:57:41;;;;;;;1.47;0.70;;;;;;;11.63;100.00;100240.88;2605173;22;20153;-70
2023/11/05 00:58:41;;;;;;;1.60;0.60;;;;;;;11.54;100.00;100231.66;2604799;22;20224;-70
2023/11/05 00:59:42;;;;;;;0.60;0.53;;;;;;;10.93;100.00;100137.81;2605127;22;20810;-70
2023/11/05 01:00:42;;;;;;;1.67;0.87;;;;;;;11.63;100.00;100240.88;2604609;22;20616;-70
2023/11/05 01:01:43;;;;;;;3.10;0.90;;;;;;;11.64;100.00;100236.84;2605053;22;20636;-71
2023/11/05 01:02:43;;;;;;;1.53;0.80;;;;;;;11.65;100.00;100238.44;2605287;22;20476;-71
2023/11/05 01:03:44;;;;;;;2.27;0.63;;;;;;;11.66;100.00;100237.19;2606403;22;20600;-70
2023/11/05 01:04:44;;;;;;;3.60;0.53;;;;;;;11.65;100.00;100241.22;2605049;22;20662;-70
2023/11/05 01:05:45;;;;;;;0.90;0.70;;;;;;;11.63;100.00;100240.88;2605161;22;20161;-70
2023/11/05 01:06:45;;;;;;;0.80;0.60;;;;;;;11.60;100.00;100229.88;2605099;22;20208;-70
2023/11/05 01:07:46;;;;;;;1.50;0.87;;;;;;;10.87;100.00;100127.75;2604751;22;20173;-70
2023/11/05 01:08:47;;;;;;;0.97;0.57;;;;;;;11.66;100.00;100245.53;2604933;22;20563;-70
2023/11/05 01:09:47;;;;;;;1.97;0.40;;;;;;;11.65;100.00;100252.31;2604916;22;20547;-71
2023/11/05 01:10:49;;;;;;;5.57;0.60;;;;;;;11.56;100.00;100237.53;2604652;22;20377;-71
2023/11/05 01:11:50;;;;;;;1.53;0.50;;;;;;;11.38;100.00;100202.03;2605362;22;20147;-70
2023/11/05 01:12:51;;;;;;;0.90;0.53;;;;;;;11.63;100.00;100246.41;2605195;22;20831;-70
2023/11/05 01:13:52;;;;;;;1.70;0.60;;;;;;;11.34;100.00;100206.97;2604697;22;20149;-70
2023/11/05 01:14:54;;;;;;;2.00;0.80;;;;;;;11.53;100.00;100224.56;2606005;22;20368;-71
2023/11/05 01:15:55;;;;;;;0.97;0.60;;;;;;;11.61;100.00;100243.31;2605256;22;20489;-71
2023/11/05 01:16:55;;;;;;;0.40;0.40;;;;;;;10.76;100.00;100116.22;2604908;22;20455;-71
2023/11/05 01:17:56;;;;;;;1.30;0.50;;;;;;;11.60;100.00;100247.31;2590443;22;20659;-70
2023/11/05 01:18:57;;;;;;;0.90;0.67;;;;;;;11.58;100.00;100249.72;2591096;22;20593;-70
2023/11/05 01:19:57;;;;;;;2.37;0.60;;;;;;;11.58;100.00;100246.19;2604780;22;21054;-70
2023/11/05 01:20:58;;;;;;;1.20;0.50;;;;;;;11.57;100.00;100244.63;2604394;22;20151;-70
2023/11/05 01:21:59;;;;;;;0.80;0.50;;;;;;;11.57;100.00;100244.63;2604796;22;20503;-70
2023/11/05 01:22:59;;;;;;;1.80;0.70;;;;;;;11.56;100.00;100245.84;2604648;22;20154;-70
2023/11/05 01:24:00;;;;;;;0.90;0.57;;;;;;;11.56;100.00;100241.09;2605154;22;20564;-70
2023/11/05 01:25:00;;;;;;;1.17;0.63;;;;;;;11.29;100.00;100215.06;2604471;22;20190;-70
2023/11/05 01:26:01;;;;;;;1.37;0.60;;;;;;;11.39;100.00;100231.38;2604738;22;20151;-71
2023/11/05 01:27:02;;;;;;;0.80;0.60;;;;;;;11.55;100.00;100253.41;2605303;22;20599;-71
2023/11/05 01:28:02;;;;;;;3.07;0.87;;;;;;;11.54;100.00;100254.63;2604537;22;20688;-71
2023/11/05 01:29:03;;;;;;;0.63;0.50;;;;;;;11.54;100.00;100253.84;2604584;22;20783;-71
2023/11/05 01:30:04;;;;;;;1.47;0.60;;;;;;;10.88;100.00;100170.88;2604723;22;20584;-70
2023/11/05 01:31:04;;;;;;;1.20;0.70;;;;;;;11.54;100.00;100253.84;2604323;22;20142;-71
2023/11/05 01:32:06;;;;;;;1.37;0.73;;;;;;;11.54;100.00;100256.63;2591011;22;20143;-71
2023/11/05 01:33:06;;;;;;;1.20;0.73;;;;;;;11.55;100.00;100252.63;2591301;22;20201;-70
2023/11/05 01:34:07;;;;;;;0.97;0.50;;;;;;;11.56;100.00;100252.19;2604711;22;20381;-71
2023/11/05 01:35:07;;;;;;;1.13;0.83;;;;;;;11.59;100.00;100247.78;2604818;22;20229;-70
2023/11/05 01:36:09;;;;;;;0.80;0.60;;;;;;;11.59;100.00;100245.00;2604696;22;20455;-70
2023/11/05 01:37:09;;;;;;;1.10;0.70;;;;;;;11.57;100.00;100248.19;2604733;22;20154;-71
2023/11/05 01:38:10;;;;;;;0.90;0.60;;;;;;;11.58;100.00;100241.41;2604229;22;20404;-71
2023/11/05 01:39:10;;;;;;;1.07;0.70;;;;;;;11.59;100.00;100239.44;2604982;22;20252;-71
2023/11/05 01:40:11;;;;;;;1.40;0.50;;;;;;;11.29;100.00;100185.34;2604693;22;20651;-71
2023/11/05 01:41:12;;;;;;;2.00;0.80;;;;;;;10.80;100.00;100111.31;2604351;22;20219;-71
2023/11/05 01:42:12;;;;;;;2.30;0.60;;;;;;;11.62;100.00;100241.31;2604884;22;20615;-71
2023/11/05 01:43:13;;;;;;;1.10;0.70;;;;;;;11.64;100.00;100236.84;2604705;22;20187;-71
2023/11/05 01:44:13;;;;;;;2.20;0.80;;;;;;;11.66;100.00;100236.41;2604650;22;20150;-70
2023/11/05 01:45:14;;;;;;;0.93;0.70;;;;;;;11.64;100.00;100228.53;2604695;22;20679;-70
2023/11/05 01:46:14;;;;;;;0.50;0.50;;;;;;;11.54;100.00;100220.56;2604813;22;20226;-71
2023/11/05 01:47:15;;;;;;;0.83;0.60;;;;;;;11.60;100.00;100227.13;2604754;22;20154;-71
2023/11/05 01:48:16;;;;;;;0.63;0.50;;;;;;;11.32;100.00;100192.75;2604059;22;20736;-71
2023/11/05 01:49:16;;;;;;;1.17;0.50;;;;;;;11.29;100.00;100196.44;2604678;22;20204;-70
2023/11/05 01:50:17;;;;;;;1.03;0.50;;;;;;;10.95;100.00;100163.09;2604704;22;20174;-71
2023/11/05 01:51:17;;;;;;;1.23;0.60;;;;;;;11.57;100.00;100234.31;2605800;22;20397;-71
2023/11/05 01:52:19;;;;;;;2.07;0.70;;;;;;;11.59;100.00;100236.66;2604978;22;20151;-71
2023/11/05 01:53:20;;;;;;;1.53;0.50;;;;;;;11.17;100.00;100160.41;2604856;22;20666;-70
2023/11/05 01:54:21;;;;;;;2.53;0.90;;;;;;;11.58;100.00;100221.97;2604463;22;20802;-70
2023/11/05 01:55:25;;;;;;;4.63;1.00;;;;;;;11.61;100.00;100225.88;2604804;22;20159;-70
2023/11/05 01:56:28;;;;;;;1.73;0.80;;;;;;;11.59;100.00;100226.31;2604773;22;20150;-70
2023/11/05 01:57:28;;;;;;;3.77;1.10;;;;;;;11.21;100.00;100174.91;2604850;22;20390;-70
2023/11/05 01:58:29;;;;;;;1.07;0.60;;;;;;;11.60;100.00;100232.66;2604042;22;20381;-70
2023/11/05 01:59:30;;;;;;;1.07;0.63;;;;;;;11.03;100.00;100147.78;2604871;22;20525;-70
2023/11/05 02:00:32;;;;;;;1.67;0.60;;;;;;;11.57;100.00;100248.19;2604592;22;20150;-71
2023/11/05 02:01:33;;;;;;;1.07;0.70;;;;;;;11.01;100.00;100152.22;2604685;22;20262;-70
2023/11/05 02:02:34;;;;;;;2.67;0.97;;;;;;;11.48;100.00;100227.91;2604656;22;20377;-70
2023/11/05 02:03:38;;;;;;;1.63;0.80;;;;;;;11.48;100.00;100234.22;2604567;22;20380;-71
2023/11/05 02:04:39;;;;;;;1.73;0.70;;;;;;;11.47;100.00;100229.88;2604894;22;20415;-70
2023/11/05 02:05:40;;;;;;;2.30;1.00;;;;;;;11.46;100.00;100220.03;2604663;22;20380;-70
2023/11/05 02:06:41;;;;;;;2.20;0.93;;;;;;;11.47;100.00;100218.03;2604852;22;20660;-71
2023/11/05 02:07:41;;;;;;;2.00;0.80;;;;;;;11.47;100.00;100221.56;2604595;22;20795;-71
2023/11/05 02:08:43;;;;;;;1.17;0.60;;;;;;;11.47;100.00;100226.34;2604454;22;20155;-70
2023/11/05 02:09:44;;;;;;;1.00;0.60;;;;;;;11.03;100.00;100152.53;2604784;22;20158;-71
2023/11/05 02:10:45;;;;;;;1.00;0.60;;;;;;;11.47;100.00;100218.78;2604078;22;20386;-71
2023/11/05 02:11:46;;;;;;;1.17;0.77;;;;;;;10.25;100.00;100034.38;2604740;22;20150;-71
2023/11/05 02:12:59;;;;;;;0.40;0.40;;;;;;;11.40;100.00;100207.16;2604721;22;20409;-71
2023/11/05 02:14:00;;;;;;;1.30;0.80;;;;;;;11.45;100.00;100212.94;2604777;22;20156;-71
2023/11/05 02:15:01;;;;;;;2.40;0.83;;;;;;;10.57;100.00;100092.28;2604648;22;20426;-70
2023/11/05 02:16:01;;;;;;;2.90;1.40;;;;;;;11.41;100.00;100217.03;2593271;22;20171;-71
2023/11/05 02:17:02;;;;;;;3.20;1.33;;;;;;;11.38;100.00;100209.63;2591901;22;20209;-70
2023/11/05 02:18:02;;;;;;;4.53;1.30;;;;;;;11.41;100.00;100209.50;2605327;22;20166;-70
2023/11/05 02:19:03;;;;;;;1.53;1.00;;;;;;;11.39;100.00;100216.72;2605825;22;20178;-71
2023/11/05 02:20:06;;;;;;;1.60;1.00;;;;;;;11.38;100.00;100217.94;2605996;22;20151;-70
2023/11/05 02:21:07;;;;;;;4.80;1.30;;;;;;;11.36;100.00;100223.13;2605682;22;20427;-71
2023/11/05 02:22:14;;;;;;;1.80;1.00;;;;;;;10.50;100.00;100084.97;2605624;22;20445;-71
2023/11/05 02:23:18;;;;;;;2.53;1.33;;;;;;;11.32;100.00;100214.19;2606827;22;20361;-70
2023/11/05 02:24:19;;;;;;;1.77;1.40;;;;;;;11.31;100.00;100213.41;2605795;22;20718;-71
2023/11/05 02:25:19;;;;;;;3.03;1.20;;;;;;;11.27;100.00;100214.75;2605852;22;20745;-71
2023/11/05 02:26:20;;;;;;;3.00;1.30;;;;;;;11.24;100.00;100221.16;2605811;22;20209;-71
2023/11/05 02:27:20;;;;;;;2.13;1.10;;;;;;;11.20;100.00;100209.41;2606091;22;20194;-70
2023/11/05 02:28:21;;;;;;;2.00;1.10;;;;;;;11.19;100.00;100214.19;2605260;22;20526;-70
2023/11/05 02:29:21;;;;;;;1.73;0.93;;;;;;;11.17;100.00;100205.53;2605880;22;20154;-70
2023/11/05 02:30:23;;;;;;;2.13;1.17;;;;;;;11.20;100.00;100209.41;2605577;22;20428;-70
2023/11/05 02:31:23;;;;;;;4.00;1.23;;;;;;;11.19;100.00;100211.44;2606110;22;20212;-71
2023/11/05 02:32:24;;;;;;;1.80;1.20;;;;;;;11.17;100.00;100204.78;2605790;22;20380;-71
2023/11/05 02:33:24;;;;;;;2.37;1.20;;;;;;;11.18;100.00;100209.09;2605926;22;20233;-71
2023/11/05 02:34:25;;;;;;;1.90;1.20;;;;;;;9.62;100.00;99994.78;2605931;22;20185;-71
2023/11/05 02:35:25;;;;;;;2.40;1.50;;;;;;;11.19;100.00;100210.63;2605992;22;20531;-70
2023/11/05 02:36:26;;;;;;;2.10;1.33;;;;;;;11.13;100.00;100209.66;2605960;22;20204;-70
2023/11/05 02:37:27;;;;;;;4.00;1.70;;;;;;;11.12;100.00;100219.19;2605759;22;20512;-71
2023/11/05 02:38:28;;;;;;;2.47;1.57;;;;;;;11.15;100.00;100221.06;2605293;22;20150;-71
2023/11/05 02:39:28;;;;;;;4.83;1.80;;;;;;;11.14;100.00;100213.97;2606226;22;20405;-70
2023/11/05 02:40:28;;;;;;;2.97;1.70;;;;;;;11.16;100.00;100217.84;2606100;22;20260;-71
2023/11/05 02:41:29;;;;;;;1.87;1.47;;;;;;;11.15;100.00;100221.84;2605625;22;20720;-71
2023/11/05 02:42:29;;;;;;;3.17;1.80;;;;;;;11.12;100.00;100216.44;2605890;22;20161;-71
2023/11/05 02:43:30;;;;;;;3.60;2.20;;;;;;;11.15;100.00;100227.41;2605898;22;20147;-70
2023/11/05 02:44:31;;;;;;;2.60;1.60;;;;;;;11.15;100.00;100224.63;2605367;22;20154;-71
2023/11/05 02:45:32;;;;;;;3.27;1.80;;;;;;;11.16;100.00;100225.38;2605733;22;20493;-71
2023/11/05 02:46:32;;;;;;;2.40;1.70;;;;;;;11.16;100.00;100222.59;2605728;22;20207;-70
2023/11/05 02:47:33;;;;;;;2.37;1.40;;;;;;;11.15;100.00;100212.75;2605784;22;20245;-71
2023/11/05 02:48:33;;;;;;;2.77;1.57;;;;;;;11.15;100.00;100226.59;2605170;22;20161;-71
2023/11/05 02:49:34;;;;;;;3.37;1.77;;;;;;;11.16;100.00;100214.28;2605516;22;20162;-70
2023/11/05 02:50:34;;;;;;;3.03;1.70;;;;;;;10.47;100.00;100107.25;2605310;22;20184;-71
2023/11/05 02:51:35;;;;;;;3.17;1.60;;;;;;;11.15;100.00;100207.19;2605625;22;20585;-70
2023/11/05 02:52:36;;;;;;;3.77;2.37;;;;;;;11.13;100.00;100204.88;2605810;22;20154;-70
2023/11/05 02:53:36;;;;;;;2.70;1.43;;;;;;;11.14;100.00;100200.09;2605541;22;20438;-71
2023/11/05 02:54:37;;;;;;;3.60;1.67;;;;;;;11.09;100.00;100193.13;2605670;22;20511;-70
2023/11/05 02:55:37;;;;;;;3.13;1.57;;;;;;;11.03;100.00;100183.03;2605625;22;20154;-70
2023/11/05 02:56:37;;;;;;;2.63;1.57;;;;;;;10.01;100.00;100033.13;2605810;22;20181;-70
2023/11/05 02:57:38;;;;;;;2.77;1.73;;;;;;;10.97;100.00;100177.28;2605655;22;20150;-70
2023/11/05 02:58:38;;;;;;;2.67;1.70;;;;;;;11.08;100.00;100196.34;2605063;22;20154;-70
2023/11/05 02:59:39;;;;;;;3.07;1.40;;;;;;;11.08;100.00;100201.91;2591970;22;20688;-70
2023/11/05 03:00:40;;;;;;;3.77;1.50;;;;;;;11.05;100.00;100214.66;2591598;22;20155;-71
2023/11/05 03:01:40;;;;;;;2.93;1.50;;;;;;;11.03;100.00;100214.34;2605748;22;20231;-71
2023/11/05 03:02:41;;;;;;;5.30;1.77;;;;;;;10.72;100.00;100188.38;2605655;22;20204;-71
2023/11/05 03:03:41;;;;;;;2.50;1.60;;;;;;;10.89;100.00;100203.69;2605745;22;20635;-70
2023/11/05 03:04:42;;;;;;;3.20;1.67;;;;;;;10.96;100.00;100214.53;2606707;22;20245;-71
2023/11/05 03:05:43;;;;;;;6.10;1.60;;;;;;;11.00;100.00;100242.16;2605582;22;20161;-71
2023/11/05 03:06:49;;;;;;;5.93;1.80;;;;;;;10.20;100.00;100104.16;2605626;22;20150;-71
2023/11/05 03:07:50;;;;;;;1.70;1.33;;;;;;;10.99;100.00;100233.06;2604966;22;20357;-70
2023/11/05 03:08:51;;;;;;;2.50;1.60;;;;;;;10.09;100.00;100087.84;2605380;22;20381;-71
2023/11/05 03:09:51;;;;;;;3.07;1.70;;;;;;;10.96;100.00;100230.41;2605605;22;20177;-71
2023/11/05 03:10:51;;;;;;;3.47;2.00;;;;;;;10.96;100.00;100222.09;2605029;22;20168;-70
2023/11/05 03:11:53;;;;;;;3.27;1.80;;;;;;;10.95;100.00;100228.84;2605496;22;20147;-71
2023/11/05 03:12:53;;;;;;;2.30;1.43;;;;;;;10.92;100.00;100218.66;2605416;22;20160;-71
2023/11/05 03:13:54;;;;;;;2.30;1.40;;;;;;;10.89;100.00;100216.75;2605768;22;20369;-70
2023/11/05 03:14:54;;;;;;;2.67;1.60;;;;;;;10.88;100.00;100210.47;2605478;22;20169;-71
2023/11/05 03:15:54;;;;;;;2.83;1.80;;;;;;;10.88;100.00;100217.97;2606074;22;20592;-70
2023/11/05 03:16:56;;;;;;;4.53;1.67;;;;;;;10.87;100.00;100213.66;2606579;22;20238;-71
2023/11/05 03:17:57;;;;;;;1.70;1.20;;;;;;;10.77;100.00;100195.38;2604689;22;20207;-71
2023/11/05 03:18:57;;;;;;;2.40;1.43;;;;;;;10.85;100.00;100210.53;2605193;22;20866;-71
2023/11/05 03:19:58;;;;;;;2.20;1.63;;;;;;;10.46;100.00;100150.78;2605273;22;20147;-71
2023/11/05 03:20:58;;;;;;;2.83;1.73;;;;;;;10.63;100.00;100199.38;2603867;22;20565;-71
2023/11/05 03:21:59;;;;;;;3.13;1.37;;;;;;;10.80;100.00;100202.78;2605246;22;20177;-71
2023/11/05 03:22:59;;;;;;;2.37;1.77;;;;;;;10.78;100.00;100200.47;2605139;22;20151;-71
2023/11/05 03:24:01;;;;;;;6.13;2.57;;;;;;;10.77;100.00;100196.13;2605143;22;20150;-71
2023/11/05 03:25:04;;;;;;;2.90;1.60;;;;;;;10.75;100.00;100195.81;2604802;22;20198;-70
2023/11/05 03:26:04;;;;;;;4.20;1.90;;;;;;;10.74;100.00;100199.03;2605142;22;20369;-71
2023/11/05 03:27:07;;;;;;;4.53;1.43;;;;;;;10.72;100.00;100199.44;2605152;22;20397;-71
2023/11/05 03:28:08;;;;;;;3.17;1.70;;;;;;;10.35;100.00;100166.22;2605615;22;20632;-71
2023/11/05 03:29:08;;;;;;;2.80;1.70;;;;;;;10.70;100.00;100206.66;2604977;22;20836;-71
2023/11/05 03:30:09;;;;;;;2.50;1.67;;;;;;;10.57;100.00;100189.25;2605315;22;20154;-71
2023/11/05 03:31:14;;;;;;;2.00;1.40;;;;;;;10.69;100.00;100205.91;2604705;22;20588;-71
2023/11/05 03:32:15;;;;;;;3.77;2.07;;;;;;;10.69;100.00;100207.88;2605180;22;20139;-71
2023/11/05 03:33:15;;;;;;;2.70;1.80;;;;;;;10.68;100.00;100212.66;2604897;22;20368;-71
2023/11/05 03:34:16;;;;;;;3.67;1.80;;;;;;;10.69;100.00;100210.66;2605105;22;20233;-71
2023/11/05 03:35:17;;;;;;;3.10;1.80;;;;;;;10.66;100.00;100206.00;2604463;22;20150;-71
2023/11/05 03:36:17;;;;;;;3.70;2.03;;;;;;;10.66;100.00;100197.69;2605025;22;20964;-71
2023/11/05 03:37:17;;;;;;;5.00;1.87;;;;;;;10.64;100.00;100203.69;2605117;22;20157;-71
2023/11/05 03:38:18;;;;;;;4.47;1.83;;;;;;;10.60;100.00;100210.56;2604326;22;20161;-71
2023/11/05 03:39:18;;;;;;;2.77;1.77;;;;;;;10.62;100.00;100208.91;2605276;22;20262;-71
2023/11/05 03:40:19;;;;;;;2.60;1.70;;;;;;;10.49;100.00;100205.31;2604923;22;20155;-71
2023/11/05 03:41:20;;;;;;;2.40;1.70;;;;;;;10.12;100.00;100138.81;2605010;22;20526;-71
2023/11/05 03:42:20;;;;;;;4.87;2.07;;;;;;;10.58;100.00;100215.75;2605012;22;20174;-71
2023/11/05 03:43:20;;;;;;;4.33;2.00;;;;;;;10.58;100.00;100216.53;2605427;22;20237;-71
2023/11/05 03:44:21;;;;;;;3.23;1.70;;;;;;;10.57;100.00;100215.00;2604830;22;20150;-71
2023/11/05 03:45:22;;;;;;;2.70;1.73;;;;;;;10.54;100.00;100210.31;2605373;22;20157;-72
2023/11/05 03:46:22;;;;;;;1.87;1.40;;;;;;;10.52;100.00;100212.78;2605167;22;20174;-70
2023/11/05 03:47:23;;;;;;;2.77;1.60;;;;;;;10.51;100.00;100205.66;2605281;22;20424;-71
2023/11/05 03:48:23;;;;;;;4.47;2.20;;;;;;;10.52;100.00;100204.47;2604406;22;20157;-71
2023/11/05 03:49:24;;;;;;;3.37;1.97;;;;;;;10.50;100.00;100201.34;2604988;22;20157;-71
2023/11/05 03:50:24;;;;;;;2.77;1.67;;;;;;;10.57;100.00;100217.75;2604550;22;20563;-71
2023/11/05 03:51:25;;;;;;;2.53;1.63;;;;;;;10.59;100.00;100215.31;2604878;22;20153;-70
2023/11/05 03:52:25;;;;;;;3.47;1.70;;;;;;;10.60;100.00;100216.09;2605952;22;20497;-71
2023/11/05 03:53:25;;;;;;;3.77;1.50;;;;;;;10.54;100.00;100196.47;2605190;22;20200;-71
2023/11/05 03:54:26;;;;;;;2.40;1.40;;;;;;;10.61;100.00;100212.88;2605014;22;20259;-70
2023/11/05 03:55:27;;;;;;;2.57;1.40;;;;;;;10.62;100.00;100208.91;2605066;22;20154;-71
2023/11/05 03:56:27;;;;;;;2.33;1.50;;;;;;;10.61;100.00;100214.88;2605054;22;20158;-71
2023/11/05 03:57:28;;;;;;;4.43;2.27;;;;;;;10.60;100.00;100213.34;2605155;22;20236;-71
2023/11/05 03:58:29;;;;;;;2.93;1.73;;;;;;;10.61;100.00;100210.09;2604670;22;20697;-71
2023/11/05 03:59:29;;;;;;;2.57;1.77;;;;;;;10.61;100.00;100214.88;2605039;22;20201;-71
2023/11/05 04:00:30;;;;;;;2.13;1.50;;;;;;;10.61;100.00;100206.56;2604790;22;20237;-71
2023/11/05 04:01:30;;;;;;;2.30;1.50;;;;;;;10.59;100.00;100206.22;2605059;22;20188;-71
2023/11/05 04:02:31;;;;;;;2.03;1.50;;;;;;;10.59;100.00;100218.09;2605152;22;20157;-71
2023/11/05 04:03:32;;;;;;;3.47;1.80;;;;;;;10.60;100.00;100216.09;2605084;22;20151;-71
2023/11/05 04:04:33;;;;;;;2.37;1.60;;;;;;;10.59;100.00;100220.84;2604652;22;20592;-71
2023/11/05 04:05:33;;;;;;;2.17;1.27;;;;;;;10.59;100.00;100209.78;2604988;22;20834;-71
2023/11/05 04:06:33;;;;;;;2.07;1.50;;;;;;;10.59;100.00;100215.31;2605032;22;20156;-70
2023/11/05 04:07:34;;;;;;;3.03;1.70;;;;;;;10.61;100.00;100218.41;2591304;22;20163;-71
2023/11/05 04:08:34;;;;;;;2.37;1.20;;;;;;;10.60;100.00;100207.78;2590770;22;20211;-71
2023/11/05 04:09:35;;;;;;;6.17;1.80;;;;;;;10.61;100.00;100206.56;2604932;22;20252;-71
2023/11/05 04:10:35;;;;;;;2.47;1.67;;;;;;;10.23;100.00;100153.88;2604788;22;20154;-71
2023/11/05 04:11:36;;;;;;;3.37;1.70;;;;;;;10.60;100.00;100219.63;2604689;22;20146;-71
2023/11/05 04:12:37;;;;;;;2.83;1.40;;;;;;;10.56;100.00;100213.41;2605007;22;20280;-70
2023/11/05 04:13:37;;;;;;;2.83;1.40;;;;;;;10.60;100.00;100224.41;2605010;22;20807;-71
2023/11/05 04:14:38;;;;;;;3.40;2.00;;;;;;;9.83;100.00;100099.28;2605317;22;20233;-71
2023/11/05 04:15:38;;;;;;;5.57;1.93;;;;;;;10.60;100.00;100232.72;2607755;22;20173;-70
2023/11/05 04:16:38;;;;;;;3.73;1.50;;;;;;;10.61;100.00;100228.72;2606734;22;20150;-71
2023/11/05 04:17:39;;;;;;;3.17;1.60;;;;;;;10.60;100.00;100221.66;2606593;22;20154;-71
2023/11/05 04:18:41;;;;;;;2.47;1.73;;;;;;;10.49;100.00;100190.69;2591937;22;20158;-71
2023/11/05 04:19:42;;;;;;;3.17;1.43;;;;;;;10.60;100.00;100210.56;2592717;22;20197;-71
2023/11/05 04:20:42;;;;;;;2.60;1.40;;;;;;;10.60;100.00;100210.56;2605935;22;20377;-71
2023/11/05 04:21:42;;;;;;;3.37;1.80;;;;;;;10.19;100.00;100142.13;2604989;22;20183;-71
2023/11/05 04:22:45;;;;;;;3.70;1.57;;;;;;;10.60;100.00;100208.53;2605327;22;20155;-71
2023/11/05 04:23:45;;;;;;;4.77;1.53;;;;;;;10.60;100.00;100205.78;2606450;22;20589;-71
2023/11/05 04:24:46;;;;;;;3.13;1.30;;;;;;;10.59;100.00;100207.00;2591364;22;20784;-71
2023/11/05 04:25:47;;;;;;;1.97;1.20;;;;;;;10.24;100.00;100168.53;2591833;22;20186;-71
2023/11/05 04:26:47;;;;;;;2.73;1.17;;;;;;;10.55;100.00;100205.56;2605584;22;20426;-71
2023/11/05 04:27:48;;;;;;;1.87;1.30;;;;;;;10.53;100.00;100206.00;2605004;22;20381;-71
2023/11/05 04:28:48;;;;;;;5.60;1.67;;;;;;;10.50;100.00;100200.56;2605281;22;20150;-71
2023/11/05 04:29:49;;;;;;;2.70;1.30;;;;;;;10.48;100.00;100208.53;2605479;22;20152;-71
2023/11/05 04:30:49;;;;;;;2.23;1.47;;;;;;;10.46;100.00;100206.19;2605131;22;20425;-71
2023/11/05 04:31:50;;;;;;;2.87;1.40;;;;;;;10.43;100.00;100207.09;2605545;22;20146;-71
2023/11/05 04:32:50;;;;;;;2.53;1.60;;;;;;;10.09;100.00;100201.38;2605355;22;20147;-71
2023/11/05 04:33:51;;;;;;;3.70;1.50;;;;;;;10.23;100.00;100206.50;2605391;22;20548;-71
2023/11/05 04:34:51;;;;;;;3.73;1.83;;;;;;;10.20;100.00;100204.59;2605244;22;20511;-71
2023/11/05 04:35:52;;;;;;;2.17;1.40;;;;;;;10.16;100.00;100201.19;2605520;22;20606;-71
2023/11/05 04:36:52;;;;;;;3.50;1.50;;;;;;;10.14;100.00;100200.06;2605642;22;20151;-71
2023/11/05 04:37:53;;;;;;;3.33;1.60;;;;;;;9.79;100.00;100151.97;2604815;22;20148;-71
2023/11/05 04:38:53;;;;;;;2.10;1.37;;;;;;;10.11;100.00;100209.25;2605387;22;20150;-71